createdAt,value
2018-11-27T00:00:06.881Z,89.82
2018-11-27T00:01:06.872Z,89.82
2018-11-27T00:02:06.871Z,89.92
2018-11-27T00:03:06.626Z,89.25
2018-11-27T00:04:06.861Z,89.16
2018-11-27T00:05:06.857Z,89.25
2018-11-27T00:06:06.908Z,89.44
2018-11-27T00:07:06.850Z,89.44
2018-11-27T00:08:06.846Z,89.44
2018-11-27T00:09:07.074Z,89.44
2018-11-27T00:10:06.842Z,89.44
2018-11-27T00:11:06.592Z,89.44
2018-11-27T00:12:06.832Z,89.54
2018-11-27T00:13:06.849Z,89.35
2018-11-27T00:14:06.824Z,89.35
2018-11-27T00:15:06.820Z,89.06
2018-11-27T00:16:06.817Z,88.97
2018-11-27T00:17:06.565Z,89.25
2018-11-27T00:18:06.567Z,88.68
2018-11-27T00:19:06.804Z,88.59
2018-11-27T00:20:06.797Z,88.92
2018-11-27T00:21:06.604Z,88.92
2018-11-27T00:22:06.793Z,89.11
2018-11-27T00:23:06.789Z,88.92
2018-11-27T00:24:06.537Z,88.45
2018-11-27T00:25:06.777Z,88.59
2018-11-27T00:26:06.775Z,88.45
2018-11-27T00:27:06.773Z,88.45
2018-11-27T00:28:06.533Z,88.45
2018-11-27T00:29:06.763Z,88.35
2018-11-27T00:30:06.763Z,88.35
2018-11-27T00:31:06.754Z,88.12
2018-11-27T00:32:06.757Z,88.35
2018-11-27T00:33:06.747Z,88.07
2018-11-27T00:34:06.499Z,88.45
2018-11-27T00:35:06.743Z,88.21
2018-11-27T00:36:06.542Z,89.01
2018-11-27T00:37:06.736Z,88.68
2018-11-27T00:38:06.731Z,88.78
2018-11-27T00:39:06.723Z,88.49
2018-11-27T00:40:06.723Z,88.68
2018-11-27T00:41:06.771Z,88.82
2018-11-27T00:42:06.712Z,88.68
2018-11-27T00:43:06.714Z,88.35
2018-11-27T00:44:06.707Z,88.02
2018-11-27T00:45:06.722Z,88.31
2018-11-27T00:46:06.701Z,88.21
2018-11-27T00:47:06.699Z,88.12
2018-11-27T00:48:06.694Z,88.68
2018-11-27T00:49:06.686Z,88.31
2018-11-27T00:50:06.685Z,88.12
2018-11-27T00:51:06.733Z,88.45
2018-11-27T00:52:06.670Z,88.17
2018-11-27T00:53:06.668Z,88.26
2018-11-27T00:54:06.670Z,88.4
2018-11-27T00:55:06.659Z,87.74
2018-11-27T00:56:06.651Z,87.88
2018-11-27T00:57:06.653Z,87.46
2018-11-27T00:58:06.650Z,87.31
2018-11-27T00:59:06.641Z,87.59
2018-11-27T01:00:06.653Z,87.5
2018-11-27T01:01:06.636Z,87.69
2018-11-27T01:02:06.636Z,87.59
2018-11-27T01:03:06.627Z,88.07
2018-11-27T01:04:06.624Z,88.17
2018-11-27T01:05:06.624Z,87.88
2018-11-27T01:06:06.769Z,87.88
2018-11-27T01:07:06.617Z,87.93
2018-11-27T01:08:06.618Z,87.98
2018-11-27T01:09:06.612Z,87.55
2018-11-27T01:10:06.361Z,88.02
2018-11-27T01:11:06.606Z,87.88
2018-11-27T01:12:06.600Z,88.12
2018-11-27T01:13:06.592Z,87.78
2018-11-27T01:14:06.593Z,87.84
2018-11-27T01:15:06.584Z,87.74
2018-11-27T01:16:06.583Z,88.49
2018-11-27T01:17:06.605Z,87.55
2018-11-27T01:18:06.575Z,87.69
2018-11-27T01:19:06.572Z,87.93
2018-11-27T01:20:06.568Z,87.74
2018-11-27T01:21:06.611Z,87.65
2018-11-27T01:22:06.556Z,87.93
2018-11-27T01:23:06.553Z,87.93
2018-11-27T01:24:06.550Z,87.74
2018-11-27T01:25:06.544Z,87.93
2018-11-27T01:26:06.298Z,87.74
2018-11-27T01:27:06.542Z,87.74
2018-11-27T01:28:06.542Z,87.78
2018-11-27T01:29:06.536Z,87.55
2018-11-27T01:30:06.526Z,87.93
2018-11-27T01:31:06.580Z,87.59
2018-11-27T01:32:06.526Z,87.36
2018-11-27T01:33:06.517Z,87.46
2018-11-27T01:34:06.511Z,86.65
2018-11-27T01:35:06.515Z,86.55
2018-11-27T01:36:06.544Z,86.36
2018-11-27T01:37:06.495Z,86.18
2018-11-27T01:38:06.490Z,85.99
2018-11-27T01:39:06.243Z,85.61
2018-11-27T01:40:06.478Z,85.7
2018-11-27T01:41:06.481Z,85.8
2018-11-27T01:42:06.481Z,85.61
2018-11-27T01:43:06.470Z,85.8
2018-11-27T01:44:06.469Z,85.8
2018-11-27T01:45:06.463Z,85.89
2018-11-27T01:46:06.462Z,85.61
2018-11-27T01:47:06.459Z,85.7
2018-11-27T01:48:06.454Z,85.51
2018-11-27T01:49:06.471Z,85.8
2018-11-27T01:50:06.453Z,85.99
2018-11-27T01:51:06.494Z,86.36
2018-11-27T01:52:06.201Z,85.99
2018-11-27T01:53:06.436Z,86.36
2018-11-27T01:54:06.192Z,86.36
2018-11-27T01:55:06.428Z,85.8
2018-11-27T01:56:06.477Z,86.18
2018-11-27T01:57:06.421Z,86.27
2018-11-27T01:58:06.415Z,86.13
2018-11-27T01:59:06.417Z,86.27
2018-11-27T02:00:06.407Z,85.51
2018-11-27T02:01:06.159Z,85.8
2018-11-27T02:02:06.403Z,86.08
2018-11-27T02:03:06.396Z,86.36
2018-11-27T02:04:06.404Z,85.99
2018-11-27T02:05:06.389Z,86.27
2018-11-27T02:06:06.137Z,86.22
2018-11-27T02:07:06.381Z,86.46
2018-11-27T02:08:06.377Z,86.6
2018-11-27T02:09:06.574Z,86.7
2018-11-27T02:10:06.372Z,87.17
2018-11-27T02:11:06.415Z,87.74
2018-11-27T02:12:06.367Z,88.49
2018-11-27T02:13:06.359Z,89.06
2018-11-27T02:14:06.360Z,90.11
2018-11-27T02:15:06.354Z,89.82
2018-11-27T02:16:06.347Z,89.73
2018-11-27T02:17:06.347Z,89.44
2018-11-27T02:18:06.343Z,89.63
2018-11-27T02:19:06.340Z,89.06
2018-11-27T02:20:06.335Z,88.4
2018-11-27T02:21:06.381Z,88.78
2018-11-27T02:22:06.326Z,88.21
2018-11-27T02:23:06.323Z,87.93
2018-11-27T02:24:06.316Z,87.84
2018-11-27T02:25:06.317Z,88.17
2018-11-27T02:26:06.309Z,87.84
2018-11-27T02:27:06.307Z,87.59
2018-11-27T02:28:06.300Z,87.55
2018-11-27T02:29:06.299Z,87.69
2018-11-27T02:30:06.296Z,86.83
2018-11-27T02:31:06.292Z,86.74
2018-11-27T02:32:06.287Z,86.74
2018-11-27T02:33:06.296Z,86.55
2018-11-27T02:34:06.277Z,86.36
2018-11-27T02:35:06.274Z,86.08
2018-11-27T02:36:06.374Z,85.8
2018-11-27T02:37:06.269Z,85.99
2018-11-27T02:38:06.266Z,86.18
2018-11-27T02:39:06.017Z,86.08
2018-11-27T02:40:06.263Z,85.99
2018-11-27T02:41:06.304Z,85.99
2018-11-27T02:42:06.249Z,85.51
2018-11-27T02:43:06.246Z,85.51
2018-11-27T02:44:06.244Z,84.75
2018-11-27T02:45:06.234Z,85.04
2018-11-27T02:46:07.232Z,85.13
2018-11-27T02:47:06.229Z,85.23
2018-11-27T02:48:06.226Z,85.8
2018-11-27T02:49:06.226Z,84.94
2018-11-27T02:50:06.225Z,84.94
2018-11-27T02:51:06.217Z,85.13
2018-11-27T02:52:06.218Z,84.94
2018-11-27T02:53:06.223Z,85.04
2018-11-27T02:54:05.955Z,85.32
2018-11-27T02:55:06.196Z,85.13
2018-11-27T02:56:06.245Z,85.51
2018-11-27T02:57:06.196Z,85.8
2018-11-27T02:58:06.190Z,85.8
2018-11-27T02:59:06.181Z,86.18
2018-11-27T03:00:06.177Z,86.27
2018-11-27T03:01:06.220Z,86.65
2018-11-27T03:02:06.170Z,86.74
2018-11-27T03:03:06.165Z,86.46
2018-11-27T03:04:06.159Z,86.55
2018-11-27T03:05:06.155Z,85.99
2018-11-27T03:06:06.153Z,85.94
2018-11-27T03:07:06.153Z,86.04
2018-11-27T03:08:06.153Z,85.61
2018-11-27T03:09:06.157Z,85.8
2018-11-27T03:10:06.144Z,85.51
2018-11-27T03:11:06.134Z,85.7
2018-11-27T03:12:05.889Z,84.94
2018-11-27T03:13:05.888Z,84.85
2018-11-27T03:14:06.127Z,85.04
2018-11-27T03:15:06.121Z,84.94
2018-11-27T03:16:06.164Z,85.32
2018-11-27T03:17:05.919Z,85.13
2018-11-27T03:18:06.110Z,84.94
2018-11-27T03:19:05.860Z,85.32
2018-11-27T03:20:06.109Z,85.38
2018-11-27T03:21:06.130Z,85.66
2018-11-27T03:22:06.097Z,85.8
2018-11-27T03:23:06.099Z,85.57
2018-11-27T03:24:06.090Z,86.18
2018-11-27T03:25:06.096Z,86.51
2018-11-27T03:26:05.840Z,86.6
2018-11-27T03:27:06.078Z,86.7
2018-11-27T03:28:06.073Z,87.08
2018-11-27T03:29:06.071Z,87.46
2018-11-27T03:30:06.068Z,87.65
2018-11-27T03:31:06.117Z,87.55
2018-11-27T03:32:06.064Z,88.12
2018-11-27T03:33:06.063Z,87.84
2018-11-27T03:34:06.052Z,88.87
2018-11-27T03:35:06.044Z,88.59
2018-11-27T03:36:05.802Z,88.59
2018-11-27T03:37:06.065Z,89.25
2018-11-27T03:38:06.038Z,89.35
2018-11-27T03:39:06.029Z,89.73
2018-11-27T03:40:06.026Z,89.82
2018-11-27T03:41:06.028Z,89.54
2018-11-27T03:42:06.025Z,89.44
2018-11-27T03:43:06.015Z,89.82
2018-11-27T03:44:06.011Z,89.82
2018-11-27T03:45:06.014Z,89.82
2018-11-27T03:46:06.063Z,90.01
2018-11-27T03:47:05.998Z,89.25
2018-11-27T03:48:05.995Z,89.25
2018-11-27T03:49:05.987Z,89.63
2018-11-27T03:50:05.745Z,89.54
2018-11-27T03:51:05.983Z,89.06
2018-11-27T03:52:05.976Z,89.63
2018-11-27T03:53:05.972Z,89.25
2018-11-27T03:54:05.966Z,88.87
2018-11-27T03:55:05.968Z,88.49
2018-11-27T03:56:06.012Z,88.4
2018-11-27T03:57:05.968Z,88.21
2018-11-27T03:58:05.955Z,87.55
2018-11-27T03:59:05.708Z,87.36
2018-11-27T04:00:05.945Z,87.65
2018-11-27T04:01:05.940Z,87.55
2018-11-27T04:02:05.942Z,87.46
2018-11-27T04:03:05.938Z,86.79
2018-11-27T04:04:09.976Z,86.79
2018-11-27T04:05:05.931Z,86.79
2018-11-27T04:06:05.921Z,86.7
2018-11-27T04:07:05.919Z,86.98
2018-11-27T04:08:05.916Z,86.79
2018-11-27T04:09:05.910Z,86.98
2018-11-27T04:10:05.907Z,87.17
2018-11-27T04:11:05.992Z,86.89
2018-11-27T04:12:05.899Z,86.79
2018-11-27T04:13:05.885Z,86.6
2018-11-27T04:14:05.879Z,86.79
2018-11-27T04:15:05.879Z,86.74
2018-11-27T04:16:06.022Z,86.32
2018-11-27T04:17:05.882Z,86.41
2018-11-27T04:18:05.653Z,86.22
2018-11-27T04:19:05.639Z,86.36
2018-11-27T04:20:05.890Z,86.18
2018-11-27T04:21:05.872Z,86.08
2018-11-27T04:22:05.864Z,86.32
2018-11-27T04:23:05.864Z,86.18
2018-11-27T04:24:05.849Z,85.99
2018-11-27T04:25:05.850Z,86.36
2018-11-27T04:26:05.944Z,86.46
2018-11-27T04:27:05.856Z,86.22
2018-11-27T04:28:05.842Z,86.46
2018-11-27T04:29:05.847Z,86.83
2018-11-27T04:30:05.830Z,86.79
2018-11-27T04:31:05.827Z,86.32
2018-11-27T04:32:05.820Z,86.65
2018-11-27T04:33:05.820Z,86.22
2018-11-27T04:34:05.590Z,86.36
2018-11-27T04:35:05.809Z,86.65
2018-11-27T04:36:05.804Z,86.55
2018-11-27T04:37:05.800Z,86.98
2018-11-27T04:38:05.803Z,86.79
2018-11-27T04:39:05.799Z,86.6
2018-11-27T04:40:05.788Z,86.79
2018-11-27T04:41:05.890Z,86.41
2018-11-27T04:42:05.795Z,86.83
2018-11-27T04:43:05.778Z,88.02
2018-11-27T04:44:05.776Z,88.49
2018-11-27T04:45:05.767Z,87.84
2018-11-27T04:46:05.767Z,87.93
2018-11-27T04:47:05.517Z,88.31
2018-11-27T04:48:05.764Z,89.73
2018-11-27T04:49:05.756Z,88.97
2018-11-27T04:50:05.768Z,88.31
2018-11-27T04:51:05.746Z,87.84
2018-11-27T04:52:05.742Z,88.87
2018-11-27T04:53:05.494Z,88.97
2018-11-27T04:54:05.734Z,88.87
2018-11-27T04:55:05.729Z,88.4
2018-11-27T04:56:05.774Z,88.21
2018-11-27T04:57:05.721Z,87.84
2018-11-27T04:58:05.719Z,87.74
2018-11-27T04:59:05.720Z,88.21
2018-11-27T05:00:05.465Z,88.12
2018-11-27T05:01:05.718Z,87.74
2018-11-27T05:02:05.698Z,87.65
2018-11-27T05:03:05.701Z,87.46
2018-11-27T05:04:05.706Z,87.02
2018-11-27T05:05:05.688Z,86.89
2018-11-27T05:06:05.686Z,87.36
2018-11-27T05:07:05.682Z,87.93
2018-11-27T05:08:05.681Z,88.49
2018-11-27T05:09:05.679Z,88.87
2018-11-27T05:10:05.674Z,88.78
2018-11-27T05:11:05.718Z,88.49
2018-11-27T05:12:05.419Z,88.49
2018-11-27T05:13:05.660Z,88.49
2018-11-27T05:14:05.661Z,88.21
2018-11-27T05:15:05.714Z,88.4
2018-11-27T05:16:05.652Z,88.4
2018-11-27T05:17:05.647Z,88.4
2018-11-27T05:18:05.638Z,88.31
2018-11-27T05:19:05.634Z,89.06
2018-11-27T05:20:05.630Z,89.25
2018-11-27T05:21:05.628Z,88.87
2018-11-27T05:22:05.625Z,88.02
2018-11-27T05:23:05.620Z,88.21
2018-11-27T05:24:05.616Z,88.07
2018-11-27T05:25:05.611Z,87.65
2018-11-27T05:26:05.663Z,87.65
2018-11-27T05:27:05.606Z,87.17
2018-11-27T05:28:05.603Z,87.46
2018-11-27T05:29:05.596Z,87.36
2018-11-27T05:30:05.591Z,87.4
2018-11-27T05:31:05.587Z,87.02
2018-11-27T05:32:05.587Z,87.02
2018-11-27T05:33:05.589Z,87.12
2018-11-27T05:34:05.336Z,86.41
2018-11-27T05:35:05.573Z,86.83
2018-11-27T05:36:05.629Z,86.27
2018-11-27T05:37:05.564Z,86.18
2018-11-27T05:38:05.562Z,86.27
2018-11-27T05:39:05.554Z,85.99
2018-11-27T05:40:05.551Z,85.8
2018-11-27T05:41:05.548Z,85.42
2018-11-27T05:42:05.546Z,85.61
2018-11-27T05:43:05.545Z,85.61
2018-11-27T05:44:05.538Z,85.04
2018-11-27T05:45:05.533Z,84.94
2018-11-27T05:46:05.529Z,85.23
2018-11-27T05:47:05.522Z,85.13
2018-11-27T05:48:05.523Z,85.23
2018-11-27T05:49:05.516Z,85.13
2018-11-27T05:50:05.516Z,85.7
2018-11-27T05:51:05.566Z,85.8
2018-11-27T05:52:05.510Z,86.27
2018-11-27T05:53:05.503Z,86.65
2018-11-27T05:54:05.500Z,86.93
2018-11-27T05:55:05.492Z,86.93
2018-11-27T05:56:05.542Z,86.55
2018-11-27T05:57:05.492Z,86.55
2018-11-27T05:58:05.490Z,86.65
2018-11-27T05:59:05.478Z,86.65
2018-11-27T06:00:05.486Z,86.22
2018-11-27T06:01:05.229Z,86.13
2018-11-27T06:02:05.228Z,85.51
2018-11-27T06:03:05.466Z,85.8
2018-11-27T06:04:05.467Z,85.32
2018-11-27T06:05:05.470Z,85.23
2018-11-27T06:06:05.459Z,85.23
2018-11-27T06:07:05.448Z,85.7
2018-11-27T06:08:05.457Z,85.8
2018-11-27T06:09:05.446Z,85.42
2018-11-27T06:10:05.445Z,85.8
2018-11-27T06:11:05.487Z,85.13
2018-11-27T06:12:05.433Z,85.42
2018-11-27T06:13:05.428Z,84.94
2018-11-27T06:14:05.424Z,85.23
2018-11-27T06:15:05.421Z,85.04
2018-11-27T06:16:05.417Z,85.32
2018-11-27T06:17:05.408Z,85.23
2018-11-27T06:18:05.428Z,85.13
2018-11-27T06:19:05.162Z,85.23
2018-11-27T06:20:05.397Z,85.51
2018-11-27T06:21:05.394Z,85.75
2018-11-27T06:22:05.391Z,85.7
2018-11-27T06:23:05.385Z,86.41
2018-11-27T06:24:05.385Z,85.57
2018-11-27T06:25:05.388Z,85.8
2018-11-27T06:26:05.434Z,85.51
2018-11-27T06:27:05.377Z,85.99
2018-11-27T06:28:05.366Z,85.99
2018-11-27T06:29:05.364Z,85.38
2018-11-27T06:30:05.119Z,86.08
2018-11-27T06:31:05.354Z,85.51
2018-11-27T06:32:05.356Z,85.7
2018-11-27T06:33:05.352Z,85.61
2018-11-27T06:34:05.345Z,85.85
2018-11-27T06:35:05.152Z,85.57
2018-11-27T06:36:05.339Z,85.38
2018-11-27T06:37:05.343Z,85.04
2018-11-27T06:38:05.346Z,85.32
2018-11-27T06:39:05.081Z,84.75
2018-11-27T06:40:05.317Z,85.13
2018-11-27T06:41:05.364Z,85.04
2018-11-27T06:42:05.317Z,85.8
2018-11-27T06:43:05.117Z,86.18
2018-11-27T06:44:05.306Z,85.51
2018-11-27T06:45:05.308Z,85.8
2018-11-27T06:46:05.299Z,85.42
2018-11-27T06:47:05.294Z,86.18
2018-11-27T06:48:05.290Z,87.12
2018-11-27T06:49:05.290Z,86.79
2018-11-27T06:50:05.284Z,86.89
2018-11-27T06:51:05.285Z,87.02
2018-11-27T06:52:05.283Z,86.6
2018-11-27T06:53:05.276Z,86.41
2018-11-27T06:54:05.273Z,86.6
2018-11-27T06:55:05.262Z,86.27
2018-11-27T06:56:05.307Z,85.99
2018-11-27T06:57:05.254Z,86.36
2018-11-27T06:58:05.251Z,85.99
2018-11-27T06:59:05.251Z,86.46
2018-11-27T07:00:05.246Z,86.18
2018-11-27T07:01:05.238Z,85.51
2018-11-27T07:02:05.233Z,85.7
2018-11-27T07:03:05.231Z,85.42
2018-11-27T07:04:05.227Z,85.89
2018-11-27T07:05:05.223Z,85.7
2018-11-27T07:06:04.977Z,85.42
2018-11-27T07:07:05.223Z,85.42
2018-11-27T07:08:05.215Z,85.42
2018-11-27T07:09:05.211Z,85.13
2018-11-27T07:10:05.209Z,85.23
2018-11-27T07:11:05.299Z,85.42
2018-11-27T07:12:05.199Z,85.7
2018-11-27T07:13:05.194Z,84.94
2018-11-27T07:14:05.194Z,85.04
2018-11-27T07:15:05.192Z,84.94
2018-11-27T07:16:05.195Z,85.8
2018-11-27T07:17:05.185Z,86.18
2018-11-27T07:18:05.177Z,85.61
2018-11-27T07:19:05.176Z,85.8
2018-11-27T07:20:05.175Z,85.8
2018-11-27T07:21:05.169Z,85.8
2018-11-27T07:22:05.180Z,85.8
2018-11-27T07:23:05.180Z,85.51
2018-11-27T07:24:05.154Z,85.42
2018-11-27T07:25:04.904Z,85.51
2018-11-27T07:26:05.292Z,85.7
2018-11-27T07:27:05.140Z,85.99
2018-11-27T07:28:05.140Z,85.42
2018-11-27T07:29:05.140Z,85.7
2018-11-27T07:30:05.135Z,85.8
2018-11-27T07:31:04.884Z,86.18
2018-11-27T07:32:09.376Z,86.27
2018-11-27T07:33:05.120Z,86.36
2018-11-27T07:34:05.115Z,86.08
2018-11-27T07:35:04.871Z,85.7
2018-11-27T07:36:05.116Z,85.32
2018-11-27T07:37:05.125Z,85.99
2018-11-27T07:38:05.102Z,85.7
2018-11-27T07:39:05.098Z,85.8
2018-11-27T07:40:05.541Z,85.89
2018-11-27T07:41:05.143Z,86.18
2018-11-27T07:42:04.843Z,85.7
2018-11-27T07:43:05.088Z,85.8
2018-11-27T07:44:05.084Z,86.27
2018-11-27T07:45:05.079Z,86.46
2018-11-27T07:46:05.174Z,86.36
2018-11-27T07:47:05.066Z,86.55
2018-11-27T07:48:05.068Z,86.65
2018-11-27T07:49:05.065Z,86.46
2018-11-27T07:50:05.059Z,86.65
2018-11-27T07:51:05.102Z,86.65
2018-11-27T07:52:04.809Z,86.55
2018-11-27T07:53:05.053Z,86.65
2018-11-27T07:54:05.042Z,86.18
2018-11-27T07:55:05.039Z,86.27
2018-11-27T07:56:05.087Z,86.36
2018-11-27T07:57:04.785Z,86.27
2018-11-27T07:58:05.027Z,86.27
2018-11-27T07:59:05.027Z,86.08
2018-11-27T08:00:05.028Z,85.99
2018-11-27T08:01:05.016Z,85.61
2018-11-27T08:02:05.012Z,85.42
2018-11-27T08:03:05.015Z,86.36
2018-11-27T08:04:05.008Z,86.36
2018-11-27T08:05:04.758Z,85.8
2018-11-27T08:06:05.052Z,85.42
2018-11-27T08:07:05.009Z,86.27
2018-11-27T08:08:04.997Z,87.59
2018-11-27T08:09:05.002Z,87.59
2018-11-27T08:10:04.985Z,88.26
2018-11-27T08:11:05.985Z,87.69
2018-11-27T08:12:04.984Z,87.59
2018-11-27T08:13:04.977Z,87.12
2018-11-27T08:14:04.972Z,86.93
2018-11-27T08:15:04.967Z,86.36
2018-11-27T08:16:04.965Z,86.65
2018-11-27T08:17:04.958Z,87.4
2018-11-27T08:18:04.711Z,87.59
2018-11-27T08:19:04.710Z,87.69
2018-11-27T08:20:04.949Z,88.07
2018-11-27T08:21:04.998Z,87.98
2018-11-27T08:22:04.942Z,87.78
2018-11-27T08:23:04.938Z,87.69
2018-11-27T08:24:04.938Z,89.01
2018-11-27T08:25:04.930Z,89.39
2018-11-27T08:26:04.699Z,89.2
2018-11-27T08:27:04.927Z,88.07
2018-11-27T08:28:04.921Z,88.82
2018-11-27T08:29:04.918Z,88.45
2018-11-27T08:30:04.919Z,88.45
2018-11-27T08:31:04.912Z,87.69
2018-11-27T08:32:04.909Z,88.07
2018-11-27T08:33:04.910Z,87.88
2018-11-27T08:34:04.904Z,87.78
2018-11-27T08:35:04.900Z,86.65
2018-11-27T08:36:04.949Z,86.74
2018-11-27T08:37:04.891Z,86.83
2018-11-27T08:38:04.642Z,87.02
2018-11-27T08:39:04.885Z,86.65
2018-11-27T08:40:04.883Z,87.02
2018-11-27T08:41:04.877Z,87.4
2018-11-27T08:42:04.874Z,87.59
2018-11-27T08:43:04.873Z,87.5
2018-11-27T08:44:04.869Z,88.35
2018-11-27T08:45:04.864Z,88.45
2018-11-27T08:46:04.861Z,87.69
2018-11-27T08:47:04.867Z,87.4
2018-11-27T08:48:04.616Z,87.4
2018-11-27T08:49:04.849Z,87.02
2018-11-27T08:50:04.849Z,86.93
2018-11-27T08:51:04.892Z,86.46
2018-11-27T08:52:04.836Z,86.74
2018-11-27T08:53:04.834Z,86.08
2018-11-27T08:54:04.853Z,86.36
2018-11-27T08:55:04.828Z,86.65
2018-11-27T08:56:04.827Z,86.65
2018-11-27T08:57:04.579Z,87.07
2018-11-27T08:58:04.819Z,87.26
2018-11-27T08:59:04.818Z,87.64
2018-11-27T09:00:04.811Z,87.07
2018-11-27T09:01:04.810Z,86.69
2018-11-27T09:02:04.814Z,86.41
2018-11-27T09:03:04.804Z,86.98
2018-11-27T09:04:04.799Z,88.87
2018-11-27T09:05:04.796Z,87.73
2018-11-27T09:06:04.847Z,88.59
2018-11-27T09:07:04.790Z,87.73
2018-11-27T09:08:04.546Z,88.3
2018-11-27T09:09:04.789Z,88.59
2018-11-27T09:10:04.784Z,88.87
2018-11-27T09:11:04.796Z,88.02
2018-11-27T09:12:04.777Z,87.83
2018-11-27T09:13:04.778Z,87.16
2018-11-27T09:14:04.769Z,86.69
2018-11-27T09:15:04.521Z,86.69
2018-11-27T09:16:04.765Z,86.79
2018-11-27T09:17:04.760Z,87.16
2018-11-27T09:18:04.761Z,87.16
2018-11-27T09:19:04.756Z,87.35
2018-11-27T09:20:04.752Z,86.69
2018-11-27T09:21:04.804Z,86.6
2018-11-27T09:22:04.502Z,86.69
2018-11-27T09:23:04.745Z,86.98
2018-11-27T09:24:04.495Z,86.88
2018-11-27T09:25:04.739Z,87.73
2018-11-27T09:26:04.733Z,87.73
2018-11-27T09:27:04.729Z,89.15
2018-11-27T09:28:04.726Z,89.15
2018-11-27T09:29:04.731Z,88.87
2018-11-27T09:30:04.720Z,88.4
2018-11-27T09:31:04.818Z,87.92
2018-11-27T09:32:04.719Z,89.15
2018-11-27T09:33:04.720Z,89.72
2018-11-27T09:34:04.715Z,88.87
2018-11-27T09:35:04.711Z,92.19
2018-11-27T09:36:04.758Z,91.81
2018-11-27T09:37:04.704Z,90.29
2018-11-27T09:38:04.704Z,90.2
2018-11-27T09:39:04.458Z,91.24
2018-11-27T09:40:04.695Z,92.09
2018-11-27T09:41:04.694Z,90.67
2018-11-27T09:42:04.693Z,91.05
2018-11-27T09:43:04.452Z,90.67
2018-11-27T09:44:04.692Z,91.71
2018-11-27T09:45:04.701Z,91.33
2018-11-27T09:46:04.827Z,92.94
2018-11-27T09:47:04.678Z,92.28
2018-11-27T09:48:04.676Z,92.66
2018-11-27T09:49:04.668Z,92
2018-11-27T09:50:04.671Z,92.28
2018-11-27T09:51:04.725Z,92
2018-11-27T09:52:04.652Z,91.52
2018-11-27T09:53:04.656Z,94.08
2018-11-27T09:54:04.650Z,95.6
2018-11-27T09:55:04.652Z,95.79
2018-11-27T09:56:04.656Z,96.36
2018-11-27T09:57:04.650Z,94.56
2018-11-27T09:58:04.647Z,93.7
2018-11-27T09:59:04.645Z,92.94
2018-11-27T10:00:04.399Z,92.28
2018-11-27T10:01:04.640Z,91.52
2018-11-27T10:02:04.639Z,92.28
2018-11-27T10:03:04.639Z,92.76
2018-11-27T10:04:04.637Z,92.28
2018-11-27T10:05:04.634Z,92.28
2018-11-27T10:06:04.678Z,93.32
2018-11-27T10:07:04.834Z,93.42
2018-11-27T10:08:04.637Z,93.42
2018-11-27T10:09:04.649Z,93.23
2018-11-27T10:10:04.618Z,93.23
2018-11-27T10:11:04.629Z,96.92
2018-11-27T10:12:04.616Z,96.26
2018-11-27T10:13:04.612Z,95.5
2018-11-27T10:14:04.363Z,94.74
2018-11-27T10:15:04.604Z,95.31
2018-11-27T10:16:04.662Z,95.03
2018-11-27T10:17:04.603Z,95.5
2018-11-27T10:18:04.596Z,95.41
2018-11-27T10:19:04.598Z,96.55
2018-11-27T10:20:04.591Z,97.11
2018-11-27T10:21:04.639Z,96.73
2018-11-27T10:22:04.584Z,96.92
2018-11-27T10:23:04.585Z,97.4
2018-11-27T10:24:04.587Z,96.83
2018-11-27T10:25:04.581Z,96.92
2018-11-27T10:26:04.585Z,97.11
2018-11-27T10:27:04.575Z,97.11
2018-11-27T10:28:04.575Z,97.59
2018-11-27T10:29:04.564Z,96.73
2018-11-27T10:30:04.565Z,96.36
2018-11-27T10:31:04.669Z,95.12
2018-11-27T10:32:04.560Z,95.98
2018-11-27T10:33:04.558Z,96.17
2018-11-27T10:34:04.548Z,96.83
2018-11-27T10:35:04.556Z,96.45
2018-11-27T10:36:04.596Z,96.17
2018-11-27T10:37:04.542Z,97.21
2018-11-27T10:38:04.297Z,96.17
2018-11-27T10:39:04.547Z,94.84
2018-11-27T10:40:04.538Z,95.84
2018-11-27T10:41:04.538Z,96.78
2018-11-27T10:42:04.304Z,96.22
2018-11-27T10:43:04.530Z,94.51
2018-11-27T10:44:04.530Z,94.13
2018-11-27T10:45:04.529Z,94.32
2018-11-27T10:46:04.523Z,94.04
2018-11-27T10:47:04.521Z,94.23
2018-11-27T10:48:04.516Z,93.94
2018-11-27T10:49:04.515Z,93.75
2018-11-27T10:50:04.531Z,93.84
2018-11-27T10:51:04.563Z,94.13
2018-11-27T10:52:04.507Z,94.98
2018-11-27T10:53:04.509Z,94.23
2018-11-27T10:54:04.508Z,94.32
2018-11-27T10:55:04.501Z,94.7
2018-11-27T10:56:04.547Z,94.7
2018-11-27T10:57:04.495Z,94.13
2018-11-27T10:58:04.253Z,94.23
2018-11-27T10:59:04.494Z,94.7
2018-11-27T11:00:04.498Z,94.98
2018-11-27T11:01:04.487Z,94.79
2018-11-27T11:02:04.485Z,94.7
2018-11-27T11:03:04.503Z,94.7
2018-11-27T11:04:04.476Z,95.93
2018-11-27T11:05:04.483Z,96.31
2018-11-27T11:06:04.486Z,96.03
2018-11-27T11:07:04.473Z,96.5
2018-11-27T11:08:04.471Z,95.36
2018-11-27T11:09:04.467Z,95.93
2018-11-27T11:10:04.463Z,95.65
2018-11-27T11:11:04.523Z,94.89
2018-11-27T11:12:04.471Z,94.6
2018-11-27T11:13:04.464Z,95.45
2018-11-27T11:14:04.455Z,95.36
2018-11-27T11:15:04.460Z,95.26
2018-11-27T11:16:04.508Z,95.74
2018-11-27T11:17:04.451Z,95.65
2018-11-27T11:18:04.444Z,95.93
2018-11-27T11:19:04.449Z,95.74
2018-11-27T11:20:05.453Z,95.74
2018-11-27T11:21:04.686Z,95.74
2018-11-27T11:22:04.441Z,95.65
2018-11-27T11:23:04.435Z,95.74
2018-11-27T11:24:04.432Z,94.89
2018-11-27T11:25:04.428Z,94.79
2018-11-27T11:26:04.434Z,95.45
2018-11-27T11:27:04.424Z,95.07
2018-11-27T11:28:04.421Z,95.84
2018-11-27T11:29:04.424Z,95.36
2018-11-27T11:30:04.414Z,95.55
2018-11-27T11:31:04.466Z,96.88
2018-11-27T11:32:04.412Z,96.03
2018-11-27T11:33:04.430Z,96.41
2018-11-27T11:34:04.412Z,96.12
2018-11-27T11:35:04.452Z,96.31
2018-11-27T11:36:04.213Z,96.22
2018-11-27T11:37:04.402Z,96.97
2018-11-27T11:38:04.404Z,97.26
2018-11-27T11:39:04.399Z,97.54
2018-11-27T11:40:04.401Z,96.97
2018-11-27T11:41:04.166Z,97.54
2018-11-27T11:42:04.146Z,96.88
2018-11-27T11:43:04.392Z,97.35
2018-11-27T11:44:04.390Z,96.97
2018-11-27T11:45:04.385Z,96.97
2018-11-27T11:46:04.237Z,96.97
2018-11-27T11:47:04.379Z,97.07
2018-11-27T11:48:04.384Z,97.35
2018-11-27T11:49:04.401Z,97.64
2018-11-27T11:50:04.370Z,98.49
2018-11-27T11:51:04.417Z,99.44
2018-11-27T11:52:04.366Z,99.25
2018-11-27T11:53:04.373Z,98.96
2018-11-27T11:54:04.363Z,98.96
2018-11-27T11:55:04.371Z,99.15
2018-11-27T11:56:04.413Z,99.25
2018-11-27T11:57:04.360Z,98.87
2018-11-27T11:58:04.361Z,98.77
2018-11-27T11:59:04.357Z,98.58
2018-11-27T12:00:04.355Z,98.39
2018-11-27T12:01:04.352Z,98.21
2018-11-27T12:02:04.348Z,99.15
2018-11-27T12:03:04.352Z,98.87
2018-11-27T12:04:04.368Z,99.25
2018-11-27T12:05:04.343Z,99.25
2018-11-27T12:06:04.340Z,99.25
2018-11-27T12:07:04.340Z,98.21
2018-11-27T12:08:04.337Z,98.58
2018-11-27T12:09:04.334Z,98.49
2018-11-27T12:10:04.331Z,97.92
2018-11-27T12:11:04.379Z,98.96
2018-11-27T12:12:04.325Z,99.15
2018-11-27T12:13:04.325Z,99.44
2018-11-27T12:14:04.329Z,99.15
2018-11-27T12:15:04.318Z,99.15
2018-11-27T12:16:04.320Z,98.87
2018-11-27T12:17:04.317Z,98.87
2018-11-27T12:18:04.329Z,99.34
2018-11-27T12:19:04.314Z,99.15
2018-11-27T12:20:04.327Z,98.58
2018-11-27T12:21:04.313Z,98.02
2018-11-27T12:22:04.308Z,97.92
2018-11-27T12:23:04.304Z,97.73
2018-11-27T12:24:04.300Z,97.92
2018-11-27T12:25:04.299Z,98.02
2018-11-27T12:26:04.353Z,97.45
2018-11-27T12:27:04.297Z,98.68
2018-11-27T12:28:04.289Z,98.68
2018-11-27T12:29:04.297Z,98.21
2018-11-27T12:30:04.057Z,97.64
2018-11-27T12:31:04.423Z,98.87
2018-11-27T12:32:04.288Z,99.25
2018-11-27T12:33:04.295Z,98.96
2018-11-27T12:34:04.279Z,98.11
2018-11-27T12:35:04.283Z,98.96
2018-11-27T12:36:04.274Z,99.72
2018-11-27T12:37:04.268Z,99.99
2018-11-27T12:38:04.270Z,98.96
2018-11-27T12:39:04.269Z,98.77
2018-11-27T12:40:04.277Z,98.58
2018-11-27T12:41:04.068Z,99.15
2018-11-27T12:42:04.257Z,98.77
2018-11-27T12:43:04.015Z,99.25
2018-11-27T12:44:04.261Z,99.15
2018-11-27T12:45:04.276Z,98.77
2018-11-27T12:46:04.371Z,99.63
2018-11-27T12:47:04.252Z,99.25
2018-11-27T12:48:04.247Z,99.25
2018-11-27T12:49:04.246Z,99.25
2018-11-27T12:50:04.238Z,99.34
2018-11-27T12:51:04.308Z,99.44
2018-11-27T12:52:04.232Z,98.87
2018-11-27T12:53:04.302Z,98.58
2018-11-27T12:54:04.233Z,98.87
2018-11-27T12:55:04.233Z,99.25